Time;durP1;ratioP1;P1;durP2;ratioP2;P2;SDS_P1;SDS_P2;PMS_P1;PMS_P2;Temp;Humidity;BMP_temperature;BMP_pressure;BME280_temperature;BME280_humidity;BME280_pressure;Samples;Min_cycle;Max_cycle;Signal;HPM_P1;HPM_P2
2023/03/13 00:01:13;;;;;;;40.75;26.80;;;;;;;4.75;100.00;101007.06;5007824;28;20478;-73
2023/03/13 00:03:39;;;;;;;37.13;26.02;;;;;;;4.21;100.00;100924.69;5002761;28;20405;-77
2023/03/13 00:06:04;;;;;;;50.30;26.70;;;;;;;4.88;100.00;101014.44;5007387;28;20038;-73
2023/03/13 00:08:30;;;;;;;40.28;25.45;;;;;;;4.59;100.00;101003.97;5007746;28;20074;-73
2023/03/13 00:10:55;;;;;;;37.60;27.17;;;;;;;3.90;100.00;100850.09;5003452;28;20497;-74
2023/03/13 00:13:21;;;;;;;44.28;24.50;;;;;;;4.58;100.00;101003.91;5001841;28;20142;-72
2023/03/13 00:15:46;;;;;;;46.65;27.20;;;;;;;4.33;100.00;100963.19;5000193;28;20517;-74
2023/03/13 00:18:12;;;;;;;44.38;25.05;;;;;;;3.42;100.00;100847.53;5003528;28;20037;-74
2023/03/13 00:20:38;;;;;;;40.78;29.02;;;;;;;3.62;100.00;100888.03;5007322;28;20085;-73
2023/03/13 00:23:03;;;;;;;47.15;28.17;;;;;;;3.50;100.00;100888.50;5007380;28;20137;-74
2023/03/13 00:25:29;;;;;;;49.92;28.50;;;;;;;4.38;100.00;101003.22;5006901;28;20056;-73
2023/03/13 00:27:54;;;;;;;42.17;25.67;;;;;;;3.63;100.00;100847.41;5003670;28;20541;-74
2023/03/13 00:30:19;;;;;;;45.70;24.58;;;;;;;3.21;100.00;100860.59;4998060;28;20034;-73
2023/03/13 00:32:46;;;;;;;45.70;29.70;;;;;;;3.00;100.00;100868.44;5005060;28;20081;-72
2023/03/13 00:35:15;;;;;;;48.30;26.58;;;;;;;3.52;100.00;100964.66;5001651;28;20402;-71
2023/03/13 00:37:41;;;;;;;48.13;25.58;;;;;;;2.91;100.00;100864.69;4990798;28;20039;-73
2023/03/13 00:40:08;;;;;;;49.67;28.13;;;;;;;3.75;100.00;100965.53;4986109;28;20498;-74
2023/03/13 00:42:34;;;;;;;52.35;28.48;;;;;;;3.62;100.00;100955.50;4998357;28;20038;-74
2023/03/13 00:45:00;;;;;;;54.75;27.30;;;;;;;3.66;100.00;100941.84;4999378;28;20091;-73
2023/03/13 00:47:25;;;;;;;53.45;28.75;;;;;;;3.38;100.00;100825.81;5005241;28;20446;-72
2023/03/13 00:49:51;;;;;;;46.70;28.85;;;;;;;3.34;100.00;100817.00;5001814;28;20110;-71
2023/03/13 00:52:16;;;;;;;45.63;25.27;;;;;;;3.28;100.00;100819.41;4992043;28;20049;-71
2023/03/13 00:54:42;;;;;;;45.20;27.05;;;;;;;3.98;100.00;100944.69;5006171;28;20120;-71
2023/03/13 00:57:07;;;;;;;56.72;25.27;;;;;;;3.80;100.00;100938.00;5003147;28;20704;-72
2023/03/13 00:59:33;;;;;;;45.42;28.67;;;;;;;4.04;100.00;100938.84;5002679;28;20566;-73
2023/03/13 01:01:58;;;;;;;63.50;36.05;;;;;;;3.42;100.00;100835.47;5004816;28;20549;-74
2023/03/13 01:04:24;;;;;;;56.67;26.83;;;;;;;3.83;100.00;100933.78;4999150;28;20045;-72
2023/03/13 01:06:49;;;;;;;52.45;26.83;;;;;;;3.58;100.00;100945.84;5006330;28;20030;-74
2023/03/13 01:09:16;;;;;;;52.00;25.15;;;;;;;3.09;100.00;100894.72;4999801;28;20474;-73
2023/03/13 01:11:43;;;;;;;44.13;26.63;;;;;;;2.82;100.00;100789.19;5004674;28;20542;-74
2023/03/13 01:14:15;;;;;;;48.97;31.63;;;;;;;2.97;100.00;100812.19;5004340;28;20588;-74
2023/03/13 01:16:41;;;;;;;59.50;26.40;;;;;;;3.31;100.00;100866.19;5006097;28;20042;-72
2023/03/13 01:19:12;;;;;;;49.97;28.40;;;;;;;3.92;100.00;100970.44;5003924;28;20045;-73
2023/03/13 01:21:38;;;;;;;44.72;27.67;;;;;;;3.07;100.00;100951.72;5004889;28;20397;-71
2023/03/13 01:24:04;;;;;;;44.67;28.75;;;;;;;2.43;100.00;100859.34;5003271;28;20383;-74
2023/03/13 01:26:30;;;;;;;40.60;25.92;;;;;;;3.32;100.00;100973.41;5000511;28;20113;-71
2023/03/13 01:28:56;;;;;;;47.50;27.02;;;;;;;2.85;100.00;100873.94;5003198;28;20490;-73
2023/03/13 01:31:27;;;;;;;38.05;24.98;;;;;;;3.81;100.00;100993.41;4999610;28;20092;-72
2023/03/13 01:33:56;;;;;;;44.47;27.60;;;;;;;3.35;100.00;100912.16;5002208;28;20050;-73
2023/03/13 01:36:22;;;;;;;43.13;27.23;;;;;;;2.91;100.00;100854.34;5001208;28;20026;-73
2023/03/13 01:38:53;;;;;;;38.97;23.60;;;;;;;3.05;100.00;100870.41;5000691;28;20140;-72
2023/03/13 01:41:20;;;;;;;42.05;25.52;;;;;;;3.83;100.00;100988.28;4994582;28;20049;-77
2023/03/13 01:43:46;;;;;;;38.60;25.55;;;;;;;3.72;100.00;100988.78;5001818;28;20092;-74
2023/03/13 01:46:17;;;;;;;42.67;28.10;;;;;;;3.36;100.00;101007.28;5001122;28;20141;-71
2023/03/13 01:48:49;;;;;;;48.28;28.88;;;;;;;3.54;100.00;100983.78;5002225;28;20042;-72
2023/03/13 01:51:39;;;;;;;44.65;26.23;;;;;;;3.50;100.00;100989.66;4998752;28;20037;-75
2023/03/13 01:54:13;;;;;;;44.38;28.25;;;;;;;3.31;100.00;100964.75;4996650;28;20074;-74
2023/03/13 01:57:05;;;;;;;45.28;25.38;;;;;;;3.51;100.00;100994.06;4998354;28;20092;-73
2023/03/13 01:59:41;;;;;;;39.88;24.42;;;;;;;3.61;100.00;100995.28;5005338;28;20046;-73
2023/03/13 02:02:07;;;;;;;52.38;26.10;;;;;;;3.40;100.00;100997.06;4999228;28;20049;-73
2023/03/13 02:04:42;;;;;;;40.15;25.40;;;;;;;2.95;100.00;101022.13;5000730;28;20042;-71
2023/03/13 02:07:13;;;;;;;47.70;24.77;;;;;;;2.26;100.00;100866.44;5002925;28;20054;-75
2023/03/13 02:09:41;;;;;;;48.78;26.33;;;;;;;3.20;100.00;101019.63;5002482;28;20064;-74
2023/03/13 02:12:09;;;;;;;55.28;26.42;;;;;;;3.21;100.00;101022.28;4998938;28;20042;-71
2023/03/13 02:14:37;;;;;;;35.75;24.50;;;;;;;3.13;100.00;101008.09;5003629;28;20041;-72
2023/03/13 02:17:04;;;;;;;51.85;26.25;;;;;;;3.44;100.00;101014.50;5005292;28;20498;-71
2023/03/13 02:19:47;;;;;;;40.45;23.58;;;;;;;2.57;100.00;100878.03;5009254;28;20128;-73
2023/03/13 02:22:18;;;;;;;42.93;24.47;;;;;;;3.43;100.00;101026.59;5002952;28;20048;-73
2023/03/13 02:25:32;;;;;;;48.78;24.95;;;;;;;3.23;100.00;101012.84;4993319;28;20487;-70
2023/03/13 02:28:05;;;;;;;32.50;22.65;;;;;;;3.24;100.00;101012.00;4977518;28;20205;-74
2023/03/13 02:30:31;;;;;;;;;;;;;;;3.52;100.00;101037.31;5005805;28;20038;-72
2023/03/13 02:32:59;;;;;;;39.25;23.45;;;;;;;3.40;100.00;101043.75;5000429;28;20281;-73
2023/03/13 02:35:24;;;;;;;40.63;21.65;;;;;;;3.19;100.00;101015.25;5004136;28;20058;-73
2023/03/13 02:37:55;;;;;;;33.33;20.40;;;;;;;3.38;100.00;101048.88;5002889;28;20058;-72
2023/03/13 02:40:27;;;;;;;36.13;24.55;;;;;;;3.42;100.00;101071.53;5002020;28;20246;-72
2023/03/13 02:42:54;;;;;;;33.43;23.60;;;;;;;3.46;100.00;101090.66;5004311;28;20042;-73
2023/03/13 02:45:20;;;;;;;28.70;21.05;;;;;;;3.10;100.00;101002.81;5007365;28;20065;-74
2023/03/13 02:47:46;;;;;;;29.25;20.08;;;;;;;2.84;100.00;100966.38;4998253;28;20124;-74
2023/03/13 02:50:12;;;;;;;37.90;20.25;;;;;;;2.91;100.00;100965.78;5003569;28;20054;-74
2023/03/13 02:52:52;;;;;;;37.22;23.00;;;;;;;3.50;100.00;101093.44;4997183;28;20049;-77
2023/03/13 02:55:31;;;;;;;35.78;20.30;;;;;;;2.83;100.00;100985.31;5005494;28;20528;-74
2023/03/13 02:57:56;;;;;;;36.17;20.92;;;;;;;3.58;100.00;101104.13;5013153;28;20037;-76
2023/03/13 03:00:25;;;;;;;34.78;21.00;;;;;;;3.47;100.00;101121.88;5005254;28;20037;-74
2023/03/13 03:02:52;;;;;;;38.65;21.98;;;;;;;2.27;100.00;100963.13;5004402;28;20049;-73
2023/03/13 03:05:18;;;;;;;37.92;20.90;;;;;;;2.01;100.00;100912.84;4999289;28;20064;-77
2023/03/13 03:07:45;;;;;;;37.20;24.00;;;;;;;3.20;100.00;101105.19;5005935;28;20717;-73
2023/03/13 03:10:11;;;;;;;31.92;21.60;;;;;;;3.20;100.00;101100.00;5007442;28;20046;-73
2023/03/13 03:12:36;;;;;;;34.75;23.55;;;;;;;2.40;100.00;100974.91;5006991;28;20036;-73
2023/03/13 03:15:03;;;;;;;34.60;20.50;;;;;;;3.23;100.00;101137.34;4997535;28;20065;-73
2023/03/13 03:17:29;;;;;;;44.00;21.73;;;;;;;2.67;100.00;101058.06;5000028;28;20042;-74
2023/03/13 03:19:55;;;;;;;30.05;19.02;;;;;;;2.29;100.00;100980.53;5003587;28;20512;-74
2023/03/13 03:22:20;;;;;;;32.25;18.55;;;;;;;2.59;100.00;101018.88;4999327;28;20064;-72
2023/03/13 03:24:46;;;;;;;37.67;22.83;;;;;;;2.28;100.00;101007.22;5006155;28;20037;-76
2023/03/13 03:27:11;;;;;;;39.33;22.88;;;;;;;1.11;100.00;100869.28;5004532;28;20036;-72
2023/03/13 03:29:37;;;;;;;34.22;22.45;;;;;;;1.69;100.00;100974.44;4998211;28;20096;-72
2023/03/13 03:32:02;;;;;;;39.60;25.52;;;;;;;2.95;100.00;101109.38;4999579;28;20607;-72
2023/03/13 03:34:28;;;;;;;42.40;20.38;;;;;;;2.91;100.00;101130.78;5002655;28;20146;-74
2023/03/13 03:36:53;;;;;;;35.15;21.77;;;;;;;2.08;100.00;100980.50;5006753;28;20084;-73
2023/03/13 03:39:19;;;;;;;36.58;22.88;;;;;;;3.07;100.00;101132.31;5008375;28;20493;-77
2023/03/13 03:41:44;;;;;;;34.33;21.20;;;;;;;2.67;100.00;101112.47;5003019;28;20053;-73
2023/03/13 03:44:10;;;;;;;36.88;23.73;;;;;;;1.93;100.00;100994.44;5003290;28;20430;-75
2023/03/13 03:46:35;;;;;;;33.45;21.90;;;;;;;1.45;100.00;100901.78;5000910;28;20057;-70
2023/03/13 03:49:01;;;;;;;38.72;22.42;;;;;;;2.13;100.00;101035.06;4998470;28;20053;-73
2023/03/13 03:51:26;;;;;;;37.63;21.20;;;;;;;2.17;100.00;101086.13;5006761;28;20049;-74
2023/03/13 03:53:52;;;;;;;62.47;23.20;;;;;;;2.60;100.00;101170.00;5006062;28;20160;-71
2023/03/13 03:56:17;;;;;;;32.00;20.65;;;;;;;1.98;100.00;101053.34;5004413;28;20506;-76
2023/03/13 03:58:43;;;;;;;36.35;21.02;;;;;;;2.86;100.00;101177.25;4996712;28;20041;-73
2023/03/13 04:01:08;;;;;;;44.70;23.10;;;;;;;2.98;100.00;101176.00;4999312;28;20125;-72
2023/03/13 04:03:33;;;;;;;38.63;23.55;;;;;;;2.04;100.00;101056.22;5005760;28;20478;-74
2023/03/13 04:05:59;;;;;;;35.20;21.90;;;;;;;3.03;100.00;101197.81;4996273;28;20041;-72
2023/03/13 04:08:25;;;;;;;43.42;22.60;;;;;;;2.94;100.00;101149.94;5002328;28;20057;-72
2023/03/13 04:10:50;;;;;;;32.13;22.95;;;;;;;2.16;100.00;101036.88;4996646;28;20053;-74
2023/03/13 04:13:16;;;;;;;36.28;26.52;;;;;;;2.66;100.00;101175.47;5001329;28;20734;-71
2023/03/13 04:15:42;;;;;;;41.85;26.52;;;;;;;2.00;100.00;101056.03;4999821;28;20034;-72
2023/03/13 04:18:07;;;;;;;34.78;24.65;;;;;;;2.50;100.00;101181.66;5004235;28;21181;-72
2023/03/13 04:20:33;;;;;;;41.97;23.15;;;;;;;2.47;100.00;101151.34;5001866;28;20049;-73
2023/03/13 04:22:59;;;;;;;34.67;20.80;;;;;;;2.13;100.00;101166.16;5000757;28;20050;-73
2023/03/13 04:25:25;;;;;;;48.40;23.02;;;;;;;1.60;100.00;101031.81;4999983;28;20050;-72
2023/03/13 04:27:50;;;;;;;42.97;26.17;;;;;;;2.37;100.00;101159.53;5004550;28;20041;-71
2023/03/13 04:30:16;;;;;;;38.10;25.25;;;;;;;2.77;100.00;101139.69;5002568;28;20030;-73
2023/03/13 04:32:42;;;;;;;44.53;26.00;;;;;;;2.88;100.00;101166.91;5001721;28;20056;-74
2023/03/13 04:35:08;;;;;;;36.47;25.95;;;;;;;2.77;100.00;101156.09;4996673;28;20065;-74
2023/03/13 04:37:33;;;;;;;42.00;21.85;;;;;;;2.88;100.00;101151.38;4994436;28;20157;-76
2023/03/13 04:40:00;;;;;;;35.30;23.05;;;;;;;2.83;100.00;101173.63;4992609;28;20125;-74
2023/03/13 04:42:26;;;;;;;43.22;24.05;;;;;;;2.07;100.00;101117.59;5002811;28;20030;-73
2023/03/13 04:44:51;;;;;;;45.95;32.08;;;;;;;1.65;100.00;101026.84;4999998;28;20527;-72
2023/03/13 04:47:17;;;;;;;87.97;36.03;;;;;;;2.59;100.00;101157.88;5005185;28;20100;-71
2023/03/13 04:49:42;;;;;;;44.72;31.27;;;;;;;2.81;100.00;101165.78;4995966;28;20402;-72
2023/03/13 04:52:08;;;;;;;50.20;27.23;;;;;;;2.77;100.00;101166.47;5001275;28;20045;-71
2023/03/13 04:54:33;;;;;;;39.20;24.88;;;;;;;1.55;100.00;101041.06;4995102;28;21032;-74
2023/03/13 04:56:58;;;;;;;44.55;26.40;;;;;;;2.21;100.00;101149.28;5000257;28;20048;-73
2023/03/13 04:59:24;;;;;;;49.17;28.23;;;;;;;2.01;100.00;101042.25;5000134;28;20439;-75
2023/03/13 05:01:49;;;;;;;42.33;27.73;;;;;;;2.82;100.00;101182.22;5003617;28;20347;-74
2023/03/13 05:04:15;;;;;;;44.50;25.52;;;;;;;1.84;100.00;101046.66;5002887;28;20045;-73
2023/03/13 05:06:40;;;;;;;39.05;24.70;;;;;;;2.33;100.00;101095.47;5005400;28;20679;-71
2023/03/13 05:09:06;;;;;;;48.83;26.80;;;;;;;2.15;100.00;101084.28;4998719;28;20089;-73
2023/03/13 05:11:32;;;;;;;44.17;26.13;;;;;;;2.48;100.00;101131.50;4994850;28;20074;-72
2023/03/13 05:13:58;;;;;;;69.38;25.98;;;;;;;2.70;100.00;101235.28;5003927;28;20070;-72
2023/03/13 05:16:23;;;;;;;49.60;28.67;;;;;;;1.90;100.00;101115.13;5004530;28;20072;-74
2023/03/13 05:18:48;;;;;;;42.00;25.83;;;;;;;1.51;100.00;101092.56;5003734;28;20037;-75
2023/03/13 05:21:14;;;;;;;38.58;26.42;;;;;;;2.22;100.00;101211.47;5004015;28;20478;-74
2023/03/13 05:23:39;;;;;;;49.45;27.10;;;;;;;2.30;100.00;101204.09;5003173;28;20049;-74
2023/03/13 05:26:05;;;;;;;40.50;25.13;;;;;;;2.31;100.00;101198.06;5004025;28;20085;-73
2023/03/13 05:28:30;;;;;;;45.53;25.40;;;;;;;2.19;100.00;101180.28;4999679;28;20045;-75
2023/03/13 05:30:56;;;;;;;49.83;27.23;;;;;;;2.04;100.00;101154.59;5002173;28;20155;-72
2023/03/13 05:33:21;;;;;;;51.38;28.20;;;;;;;2.51;100.00;101217.13;4997295;28;20054;-71
2023/03/13 05:35:47;;;;;;;38.00;25.70;;;;;;;1.71;100.00;101081.47;4994867;28;20038;-73
2023/03/13 05:38:12;;;;;;;48.72;27.42;;;;;;;2.42;100.00;101198.59;5000852;28;20058;-72
2023/03/13 05:40:38;;;;;;;54.08;26.80;;;;;;;1.89;100.00;101089.16;4994938;28;20057;-74
2023/03/13 05:43:04;;;;;;;37.50;23.98;;;;;;;1.79;100.00;101072.34;5005080;28;20034;-72
2023/03/13 05:45:30;;;;;;;48.45;28.00;;;;;;;1.97;100.00;101110.25;5004822;28;20061;-73
2023/03/13 05:47:57;;;;;;;48.25;27.77;;;;;;;2.99;100.00;101203.69;5004741;28;20121;-75
2023/03/13 05:50:23;;;;;;;41.95;30.45;;;;;;;3.30;100.00;101199.00;4999120;28;20049;-72
2023/03/13 05:52:48;;;;;;;36.08;26.40;;;;;;;2.70;100.00;101113.50;4999546;28;20402;-74
2023/03/13 05:55:14;;;;;;;48.38;28.60;;;;;;;3.21;100.00;101188.25;4998379;28;20509;-73
2023/03/13 05:57:43;;;;;;;56.63;29.20;;;;;;;3.15;100.00;101167.22;5000465;28;20053;-72
2023/03/13 06:00:09;;;;;;;46.97;29.98;;;;;;;2.96;100.00;101121.50;4999758;28;20147;-73
2023/03/13 06:02:35;;;;;;;62.90;30.75;;;;;;;3.65;100.00;101212.53;5003250;28;20038;-71
2023/03/13 06:05:00;;;;;;;39.83;28.20;;;;;;;3.12;100.00;101095.38;4994545;28;20054;-74
2023/03/13 06:07:26;;;;;;;49.05;29.45;;;;;;;4.04;100.00;101222.75;5002084;28;20054;-73
2023/03/13 06:09:51;;;;;;;50.08;29.58;;;;;;;3.97;100.00;101224.22;4999965;28;20027;-72
2023/03/13 06:12:16;;;;;;;42.70;27.27;;;;;;;4.20;100.00;101224.25;5006444;28;20088;-73
2023/03/13 06:14:42;;;;;;;47.28;28.73;;;;;;;4.34;100.00;101225.66;5006659;28;20038;-74
2023/03/13 06:17:07;;;;;;;42.67;28.48;;;;;;;4.56;100.00;101229.06;5006821;28;20096;-73
2023/03/13 06:19:33;;;;;;;36.92;23.77;;;;;;;4.94;100.00;101252.97;5004090;28;20187;-75
2023/03/13 06:21:58;;;;;;;42.17;24.83;;;;;;;4.39;100.00;101127.09;5002606;28;20042;-73
2023/03/13 06:24:24;;;;;;;41.08;23.70;;;;;;;4.59;100.00;101146.91;5000631;28;20341;-72
2023/03/13 06:26:50;;;;;;;42.35;21.30;;;;;;;5.25;100.00;101250.66;5006667;28;20042;-73
2023/03/13 06:29:16;;;;;;;26.85;18.80;;;;;;;4.90;100.00;101194.78;5007325;28;20428;-74
2023/03/13 06:31:41;;;;;;;41.72;19.95;;;;;;;5.59;100.00;101300.38;5000001;28;20418;-75
2023/03/13 06:34:10;;;;;;;27.95;19.05;;;;;;;5.70;100.00;101297.31;4998308;28;20069;-73
2023/03/13 06:36:35;;;;;;;27.55;17.10;;;;;;;5.37;100.00;101218.97;5001740;28;20805;-75
2023/03/13 06:39:01;;;;;;;29.75;17.08;;;;;;;5.98;100.00;101313.03;5005099;28;20046;-72
2023/03/13 06:41:27;;;;;;;28.83;20.00;;;;;;;5.48;100.00;101243.66;4993265;28;20069;-70
2023/03/13 06:43:52;;;;;;;31.58;17.95;;;;;;;5.30;100.00;101177.97;5001953;28;20127;-72
2023/03/13 06:46:21;;;;;;;26.83;19.17;;;;;;;5.43;100.00;101200.06;5002078;28;20769;-72
2023/03/13 06:48:47;;;;;;;33.58;18.33;;;;;;;5.88;100.00;101244.97;5008730;28;20060;-73
2023/03/13 06:51:14;;;;;;;26.50;17.52;;;;;;;5.63;100.00;101203.34;5006867;28;20038;-70
2023/03/13 06:53:40;;;;;;;40.42;18.45;;;;;;;6.26;100.00;101288.75;5007718;28;20054;-69
2023/03/13 06:56:06;;;;;;;33.38;18.77;;;;;;;6.36;100.00;101297.75;5007885;28;20700;-71
2023/03/13 06:58:32;;;;;;;29.23;17.90;;;;;;;5.99;100.00;101232.31;5003463;28;20096;-71
2023/03/13 07:00:58;;;;;;;30.30;18.00;;;;;;;6.06;100.00;101238.59;5006271;28;20025;-70
2023/03/13 07:03:24;;;;;;;36.78;24.38;;;;;;;6.66;100.00;101316.94;5008684;28;20028;-69
2023/03/13 07:05:55;;;;;;;26.35;17.33;;;;;;;6.62;100.00;101299.41;5005116;28;20038;-72
2023/03/13 07:08:21;;;;;;;25.08;17.05;;;;;;;6.16;100.00;101226.75;5003961;28;20455;-70
2023/03/13 07:10:49;;;;;;;32.95;18.27;;;;;;;6.60;100.00;101316.75;5003154;28;20041;-73
2023/03/13 07:13:15;;;;;;;35.53;26.52;;;;;;;5.92;100.00;101212.06;5000536;28;20129;-71
2023/03/13 07:15:40;;;;;;;27.40;18.08;;;;;;;6.08;100.00;101208.28;5003168;28;20382;-70
2023/03/13 07:18:06;;;;;;;39.53;27.33;;;;;;;6.89;100.00;101322.84;5001379;28;20037;-70
2023/03/13 07:20:32;;;;;;;27.77;19.27;;;;;;;6.36;100.00;101245.63;5000782;28;20474;-71
2023/03/13 07:22:58;;;;;;;40.40;26.80;;;;;;;7.10;100.00;101337.38;5002181;28;20776;-70
2023/03/13 07:25:23;;;;;;;30.17;20.35;;;;;;;6.94;100.00;101325.59;5006263;28;20042;-71
2023/03/13 07:27:52;;;;;;;34.65;24.15;;;;;;;6.86;100.00;101332.28;5000106;28;20489;-71
2023/03/13 07:30:18;;;;;;;40.22;26.75;;;;;;;6.59;100.00;101248.91;4999535;28;20038;-74
2023/03/13 07:32:44;;;;;;;41.03;21.30;;;;;;;6.33;100.00;101242.06;5003681;28;20050;-72
2023/03/13 07:35:09;;;;;;;51.20;27.30;;;;;;;7.00;100.00;101348.38;4997953;28;20616;-70
2023/03/13 07:37:35;;;;;;;38.38;25.73;;;;;;;6.39;100.00;101250.91;5005579;28;20054;-71
2023/03/13 07:40:00;;;;;;;44.55;27.30;;;;;;;6.09;100.00;101223.09;5007107;28;20041;-69
2023/03/13 07:42:26;;;;;;;31.80;24.50;;;;;;;6.33;100.00;101239.47;5006192;28;20030;-71
2023/03/13 07:44:52;;;;;;;33.45;22.50;;;;;;;7.14;100.00;101354.88;5002705;28;20482;-69
2023/03/13 07:47:17;;;;;;;38.25;23.98;;;;;;;7.06;100.00;101346.81;5007378;28;20042;-71
2023/03/13 07:49:45;;;;;;;37.72;26.55;;;;;;;6.16;100.00;101175.53;5014703;28;20049;-70
2023/03/13 07:52:10;;;;;;;33.15;21.83;;;;;;;6.97;100.00;101326.56;5006368;28;20066;-69
2023/03/13 07:54:36;;;;;;;43.83;23.38;;;;;;;7.28;100.00;101345.75;5007888;28;20540;-70
2023/03/13 07:57:02;;;;;;;43.05;24.30;;;;;;;7.22;100.00;101323.78;5008977;28;20112;-70
2023/03/13 07:59:28;;;;;;;31.55;22.92;;;;;;;6.71;100.00;101351.88;4999230;28;20132;-71
2023/03/13 08:01:53;;;;;;;33.28;24.00;;;;;;;6.57;100.00;101227.13;4991744;28;20125;-72
2023/03/13 08:04:19;;;;;;;31.33;23.08;;;;;;;7.26;100.00;101336.97;5005394;28;20641;-70
2023/03/13 08:06:44;;;;;;;30.02;20.00;;;;;;;7.36;100.00;101357.25;5004760;28;20074;-71
2023/03/13 08:09:10;;;;;;;31.83;20.83;;;;;;;6.89;100.00;101234.16;5006021;28;20042;-70
2023/03/13 08:11:39;;;;;;;29.00;21.00;;;;;;;6.74;100.00;101234.63;5000885;28;20100;-70
2023/03/13 08:14:04;;;;;;;29.60;20.75;;;;;;;7.02;100.00;101240.59;5000231;28;20036;-70
2023/03/13 08:16:33;;;;;;;26.48;18.35;;;;;;;7.91;100.00;101343.94;5002928;28;20049;-71
2023/03/13 08:18:59;;;;;;;31.48;21.45;;;;;;;7.53;100.00;101349.03;5006319;28;20107;-72
2023/03/13 08:21:28;;;;;;;23.95;19.00;;;;;;;7.83;100.00;101321.09;5005976;28;20039;-72
2023/03/13 08:23:55;;;;;;;36.05;20.73;;;;;;;8.04;100.00;101351.25;5004367;28;20053;-70
2023/03/13 08:26:24;;;;;;;28.00;20.02;;;;;;;7.75;100.00;101264.25;5004789;28;20056;-71
2023/03/13 08:28:58;;;;;;;31.38;19.23;;;;;;;7.45;100.00;101210.41;5003888;28;20103;-71
2023/03/13 08:31:36;;;;;;;29.38;19.55;;;;;;;8.25;100.00;101336.09;5004829;28;20454;-71
2023/03/13 08:34:01;;;;;;;24.90;18.52;;;;;;;8.14;100.00;101328.81;5002387;28;20513;-70
2023/03/13 08:36:33;;;;;;;24.80;19.52;;;;;;;7.42;100.00;101209.44;5005327;28;20029;-70
2023/03/13 08:39:01;;;;;;;30.58;20.90;;;;;;;7.78;100.00;101246.94;5004856;28;20129;-71
2023/03/13 08:41:33;;;;;;;27.58;17.83;;;;;;;8.52;99.37;101337.66;5004558;28;20050;-72
2023/03/13 08:43:59;;;;;;;24.75;15.23;;;;;;;7.94;89.77;101252.56;4999108;28;20100;-71
2023/03/13 08:46:25;;;;;;;23.27;17.58;;;;;;;8.52;92.18;101342.88;5006093;28;20050;-71
2023/03/13 08:48:51;;;;;;;31.98;18.08;;;;;;;8.02;93.28;101207.44;5006044;28;20797;-70
2023/03/13 08:51:18;;;;;;;21.95;15.90;;;;;;;8.90;88.74;101329.75;5005033;28;20026;-72
2023/03/13 08:53:44;;;;;;;23.85;15.13;;;;;;;8.70;87.47;101326.69;5001838;28;20045;-71
2023/03/13 08:56:11;;;;;;;25.40;16.85;;;;;;;8.83;87.63;101314.78;4998155;28;20111;-73
2023/03/13 08:58:37;;;;;;;19.50;13.38;;;;;;;8.46;83.09;101238.09;4988890;28;20050;-72
2023/03/13 09:01:05;;;;;;;21.73;15.27;;;;;;;8.51;83.32;101212.94;4996743;28;20069;-72
2023/03/13 09:03:31;;;;;;;19.70;14.93;;;;;;;8.99;82.25;101326.44;5003824;28;20038;-73
2023/03/13 09:05:58;;;;;;;19.95;15.13;;;;;;;9.07;82.40;101322.25;4998681;28;20752;-71
2023/03/13 09:08:24;;;;;;;23.35;13.60;;;;;;;8.78;80.70;101235.28;5004425;28;20141;-69
2023/03/13 09:10:58;;;;;;;23.13;14.32;;;;;;;8.93;80.56;101234.72;4998970;28;20046;-76
2023/03/13 09:13:24;;;;;;;18.05;14.43;;;;;;;8.82;79.27;101229.25;5000029;28;20145;-73
2023/03/13 09:16:02;;;;;;;19.90;15.65;;;;;;;9.47;78.46;101312.56;5005367;28;20036;-73
2023/03/13 09:18:27;;;;;;;24.08;15.20;;;;;;;9.03;79.16;101189.53;5003387;28;20038;-69
2023/03/13 09:20:53;;;;;;;20.67;15.00;;;;;;;8.94;76.30;101182.38;5005230;28;20104;-71
2023/03/13 09:23:19;;;;;;;18.00;14.95;;;;;;;9.17;78.01;101218.59;5000188;28;20474;-71
2023/03/13 09:25:45;;;;;;;21.90;15.38;;;;;;;9.50;77.04;101279.47;5002044;28;20097;-71
2023/03/13 09:28:11;;;;;;;16.83;14.55;;;;;;;9.69;75.15;101292.88;4991510;28;20077;-69
2023/03/13 09:30:36;;;;;;;20.90;14.80;;;;;;;9.92;75.22;101303.78;5000621;28;20044;-72
2023/03/13 09:33:02;;;;;;;26.17;15.55;;;;;;;9.47;74.61;101205.16;5000457;28;20034;-70
2023/03/13 09:35:27;;;;;;;20.35;14.25;;;;;;;9.50;75.39;101177.31;5003575;28;20108;-70
2023/03/13 09:37:53;;;;;;;34.92;16.67;;;;;;;10.10;70.94;101306.69;4997436;28;20481;-72
2023/03/13 09:40:21;;;;;;;25.95;15.20;;;;;;;10.26;72.02;101294.72;4999199;28;20049;-73
2023/03/13 09:42:51;;;;;;;30.70;12.35;;;;;;;9.94;66.02;101266.22;5003928;28;20033;-72
2023/03/13 09:45:35;;;;;;;15.35;12.38;;;;;;;9.63;65.69;101185.34;4998479;28;20033;-71
2023/03/13 09:48:22;;;;;;;21.52;11.13;;;;;;;9.82;63.58;101178.66;5005254;28;20037;-69
2023/03/13 09:51:06;;;;;;;14.75;9.95;;;;;;;10.31;59.99;101297.44;4999189;28;20052;-70
2023/03/13 09:53:42;;;;;;;17.67;10.85;;;;;;;10.53;59.66;101296.00;5000016;28;20077;-70
2023/03/13 09:56:16;;;;;;;14.13;10.10;;;;;;;10.37;59.92;101284.41;5003587;28;20050;-72
2023/03/13 09:58:51;;;;;;;16.35;9.75;;;;;;;10.50;58.38;101303.84;5003186;28;20053;-71
2023/03/13 10:01:21;;;;;;;15.50;11.02;;;;;;;10.02;57.86;101205.16;5000856;28;20137;-70
2023/03/13 10:04:00;;;;;;;13.65;8.43;;;;;;;10.19;56.04;101268.38;5003373;28;20030;-70
2023/03/13 10:06:29;;;;;;;15.82;9.63;;;;;;;10.63;57.34;101271.69;5004080;28;20418;-71
2023/03/13 10:09:00;;;;;;;18.83;10.48;;;;;;;10.12;57.50;101183.47;5001708;28;20548;-69
2023/03/13 10:12:14;;;;;;;10.20;8.35;;;;;;;10.90;56.56;101279.03;5000606;28;20121;-71
2023/03/13 10:14:53;;;;;;;12.75;9.23;;;;;;;10.21;57.87;101159.09;4991310;28;20046;-70
2023/03/13 10:17:31;;;;;;;11.30;7.70;;;;;;;10.48;54.27;101159.50;5002722;28;20078;-72
2023/03/13 10:20:09;;;;;;;12.98;9.07;;;;;;;11.28;54.88;101275.09;4997046;28;20054;-72
2023/03/13 10:22:36;;;;;;;9.70;8.10;;;;;;;10.49;53.96;101165.66;5002879;28;20052;-69
2023/03/13 10:25:15;;;;;;;12.00;8.80;;;;;;;11.12;53.31;101261.78;4999536;28;20080;-72
2023/03/13 10:27:48;;;;;;;9.65;7.13;;;;;;;10.28;52.00;101142.63;5000449;28;20175;-71
2023/03/13 10:30:23;;;;;;;10.98;7.38;;;;;;;11.27;52.89;101262.81;5004294;28;20042;-70
2023/03/13 10:32:48;;;;;;;12.40;8.60;;;;;;;10.89;52.53;101138.13;5001301;28;20057;-74
2023/03/13 10:35:23;;;;;;;12.80;7.80;;;;;;;10.98;51.54;101195.97;4996858;28;20050;-71
2023/03/13 10:37:49;;;;;;;12.35;7.57;;;;;;;10.14;50.25;101135.44;5004389;28;20191;-70
2023/03/13 10:40:23;;;;;;;16.27;8.52;;;;;;;11.23;49.50;101242.63;5002008;28;20045;-70
2023/03/13 10:42:51;;;;;;;15.50;7.45;;;;;;;11.71;51.01;101236.97;5001667;28;20026;-71
2023/03/13 10:45:20;;;;;;;12.05;7.53;;;;;;;12.29;50.17;101214.63;4999853;28;20046;-70
2023/03/13 10:47:54;;;;;;;15.90;7.40;;;;;;;12.14;47.85;101102.28;4997303;28;20116;-69
2023/03/13 10:50:23;;;;;;;10.43;7.47;;;;;;;12.98;46.09;101205.28;4993128;28;20067;-70
2023/03/13 10:52:49;;;;;;;12.80;7.90;;;;;;;13.23;46.49;101208.84;4998437;28;20149;-71
2023/03/13 10:55:21;;;;;;;10.80;7.05;;;;;;;13.17;46.84;101185.09;5001768;28;20051;-71
2023/03/13 10:58:01;;;;;;;11.80;8.45;;;;;;;12.77;47.30;101150.78;5004184;28;20021;-72
2023/03/13 11:00:35;;;;;;;14.50;7.65;;;;;;;13.65;46.82;101195.72;5007442;28;20113;-71
2023/03/13 11:03:05;;;;;;;17.95;8.27;;;;;;;13.28;46.19;101174.63;5006280;28;20048;-70
2023/03/13 11:05:35;;;;;;;8.68;6.65;;;;;;;13.82;45.55;101216.84;4995774;28;20125;-72
2023/03/13 11:08:30;;;;;;;8.98;6.88;;;;;;;13.32;45.19;101210.63;5000188;28;20045;-71
2023/03/13 11:11:04;;;;;;;11.25;6.57;;;;;;;13.17;46.58;101099.91;4993859;28;20049;-71
2023/03/13 11:13:39;;;;;;;10.45;6.22;;;;;;;14.20;43.94;101218.56;5005076;28;20041;-70
2023/03/13 11:16:16;;;;;;;11.80;7.50;;;;;;;13.68;43.31;101087.59;4999347;28;20081;-70